Madison, WI (53718)

6:45 AM CST on February 09, 2016 (GMT -0600)
Westport | | Change Station
CLOSE
Current Station
Personal Weather Station
Location: Waunakee, WI
Elevation: 873 ft
Nearby Weather Stations

Elev 873 ft 43.16 °N, 89.42 °W | Updated 5 seconds ago

Snow
Snow
9.7 °F
Feels Like -4 °F
N
10.0
Wind Variable Wind from NW
Gusts 17.0 mph

Today
High -- | Low -- °F
--% Chance of Precip.
Yesterday
High -- | Low -- °F
Precip. -- in
Pressure 29.88 in
Visibility 10.0 miles
Clouds Mostly Cloudy 7000 ft
Windchill -4 °F
Dew Point 4 °F
Humidity 78%
Rainfall 0.00 in
Snow Depth Not available.
7:04 AM 5:20 PM
New Moon, 1% visible
METAR KMSN 091153Z 33010G17KT 10SM -SN BKN070 M12/M16 A2983 RMK AO2 SNB51 SLP116 4/003 FIRST AUGMENTED OBS OF THE DAY P0000 60001 70002 T11221161 11100 21122 53011 $
Pressure 29.88 in
Visibility 10.0 miles
Clouds Mostly Cloudy 7000 ft
Windchill -4 °F
Dew Point 4 °F
Humidity 78%
Rainfall 0.00 in
Snow Depth Not available.
7:04 AM 5:20 PM
New Moon, 1% visible
METAR KMSN 091153Z 33010G17KT 10SM -SN BKN070 M12/M16 A2983 RMK AO2 SNB51 SLP116 4/003 FIRST AUGMENTED OBS OF THE DAY P0000 60001 70002 T11221161 11100 21122 53011 $

10-Day Weather Forecast

Almanac

Astronomy

Feb. 09, 2016 Rise Set
Actual Time
Civil Twilight
Nautical Twilight
Astronomical Twilight
Moon
Length of Visible Light
Length of Day
Tomorrow will be .
, % of the Moon is Illuminated

Today's Extremes

State Highs State Lows

Community

WunderPhotos

Upload Photos

1,891,589 photos uploaded!

WunderBlog® & News

Nearby

Air Quality

  Air Quality AQ Index Pollutant
Not available.

Snow Depth

Station Depth Elevation

Earthquake Activity

City Distance Mag. Time & Date
Minimum magnitude displayed is 2.5.

Coastal Water Temperatures

Place Temperature

Stations

Nearby Weather Stations

Station Location Temp. Windchill Dew Point Humidity Wind Precip. Elev Updated Type
                   

Watches & Warnings

There are currently no watches in effect.